createdAt,value
2023-04-13T00:00:31.742Z,0.00
2023-04-13T00:01:31.661Z,0.00
2023-04-13T00:02:31.865Z,0.00
2023-04-13T00:03:32.880Z,0.00
2023-04-13T00:04:32.863Z,0.00
2023-04-13T00:05:31.705Z,0.00
2023-04-13T00:06:31.721Z,0.00
2023-04-13T00:07:31.661Z,0.00
2023-04-13T00:08:32.647Z,0.00
2023-04-13T00:09:32.628Z,0.00
2023-04-13T00:10:31.671Z,0.00
2023-04-13T00:11:31.640Z,0.00
2023-04-13T00:12:31.652Z,0.00
2023-04-13T00:13:32.622Z,0.00
2023-04-13T00:14:32.655Z,0.00
2023-04-13T00:15:31.614Z,0.00
2023-04-13T00:16:31.762Z,0.00
2023-04-13T00:17:31.625Z,0.00
2023-04-13T00:18:32.648Z,0.00
2023-04-13T00:19:32.598Z,0.00
2023-04-13T00:20:31.591Z,0.00
2023-04-13T00:21:31.580Z,0.00
2023-04-13T00:22:31.728Z,0.00
2023-04-13T00:23:32.582Z,0.00
2023-04-13T00:24:32.617Z,0.00
2023-04-13T00:25:31.549Z,0.00
2023-04-13T00:26:31.583Z,0.00
2023-04-13T00:27:31.558Z,0.00
2023-04-13T00:28:32.566Z,0.00
2023-04-13T00:29:32.555Z,0.00
2023-04-13T00:30:31.665Z,0.00
2023-04-13T00:31:31.554Z,0.00
2023-04-13T00:32:31.569Z,0.00
2023-04-13T00:33:32.542Z,0.00
2023-04-13T00:34:32.553Z,0.00
2023-04-13T00:35:31.498Z,0.00
2023-04-13T00:36:31.517Z,0.00
2023-04-13T00:37:31.505Z,0.00
2023-04-13T00:38:32.523Z,0.00
2023-04-13T00:39:32.530Z,0.00
2023-04-13T00:40:31.525Z,0.00
2023-04-13T00:41:31.480Z,0.00
2023-04-13T00:42:31.521Z,0.00
2023-04-13T00:43:32.494Z,0.00
2023-04-13T00:44:32.520Z,0.00
2023-04-13T00:45:31.480Z,0.00
2023-04-13T00:46:31.541Z,0.00
2023-04-13T00:47:31.480Z,0.00
2023-04-13T00:48:32.495Z,0.00
2023-04-13T00:49:32.457Z,0.00
2023-04-13T00:50:31.456Z,0.00
2023-04-13T00:51:31.445Z,0.00
2023-04-13T00:52:31.484Z,0.00
2023-04-13T00:53:32.454Z,0.00
2023-04-13T00:54:32.457Z,0.00
2023-04-13T00:55:31.419Z,0.00
2023-04-13T00:56:31.438Z,0.00
2023-04-13T00:57:31.451Z,0.00
2023-04-13T00:58:32.435Z,0.00
2023-04-13T00:59:32.410Z,0.00
2023-04-13T01:00:31.498Z,0.00
2023-04-13T01:01:31.426Z,0.00
2023-04-13T01:02:31.506Z,0.00
2023-04-13T01:03:32.411Z,0.00
2023-04-13T01:04:32.450Z,0.00
2023-04-13T01:05:31.375Z,0.00
2023-04-13T01:06:31.391Z,0.00
2023-04-13T01:07:31.451Z,0.00
2023-04-13T01:08:32.387Z,0.00
2023-04-13T01:09:32.383Z,0.00
2023-04-13T01:10:31.363Z,0.00
2023-04-13T01:11:31.353Z,0.00
2023-04-13T01:12:31.435Z,0.00
2023-04-13T01:13:32.344Z,0.00
2023-04-13T01:14:32.361Z,0.00
2023-04-13T01:15:31.346Z,0.00
2023-04-13T01:16:31.345Z,0.00
2023-04-13T01:17:31.346Z,0.00
2023-04-13T01:18:32.354Z,0.00
2023-04-13T01:19:32.297Z,0.00
2023-04-13T01:20:31.342Z,0.00
2023-04-13T01:21:31.300Z,0.00
2023-04-13T01:22:31.330Z,0.00
2023-04-13T01:23:32.290Z,0.00
2023-04-13T01:24:32.321Z,0.00
2023-04-13T01:25:31.277Z,0.00
2023-04-13T01:26:31.324Z,0.00
2023-04-13T01:27:31.259Z,0.00
2023-04-13T01:28:32.294Z,0.00
2023-04-13T01:29:32.295Z,0.00
2023-04-13T01:30:31.258Z,0.00
2023-04-13T01:31:31.262Z,0.00
2023-04-13T01:32:31.270Z,0.00
2023-04-13T01:33:32.244Z,0.00
2023-04-13T01:34:32.265Z,0.00
2023-04-13T01:35:31.219Z,0.00
2023-04-13T01:36:31.252Z,0.00
2023-04-13T01:37:31.225Z,0.00
2023-04-13T01:38:32.262Z,0.00
2023-04-13T01:39:32.287Z,0.00
2023-04-13T01:40:31.216Z,0.00
2023-04-13T01:41:31.221Z,0.00
2023-04-13T01:42:31.218Z,0.00
2023-04-13T01:43:32.197Z,0.00
2023-04-13T01:44:32.225Z,0.00
2023-04-13T01:45:31.167Z,0.00
2023-04-13T01:46:31.225Z,0.00
2023-04-13T01:47:31.248Z,0.00
2023-04-13T01:48:32.209Z,0.00
2023-04-13T01:49:32.164Z,0.00
2023-04-13T01:50:31.153Z,0.00
2023-04-13T01:51:31.135Z,0.00
2023-04-13T01:52:31.162Z,0.00
2023-04-13T01:53:32.136Z,0.00
2023-04-13T01:54:32.180Z,0.00
2023-04-13T01:55:31.130Z,0.00
2023-04-13T01:56:31.139Z,0.00
2023-04-13T01:57:31.120Z,0.00
2023-04-13T01:58:32.133Z,0.00
2023-04-13T01:59:32.120Z,0.00
2023-04-13T02:00:31.129Z,0.00
2023-04-13T02:01:31.095Z,0.00
2023-04-13T02:02:31.183Z,0.00
2023-04-13T02:03:32.164Z,0.00
2023-04-13T02:04:32.133Z,0.00
2023-04-13T02:05:31.074Z,0.00
2023-04-13T02:06:31.086Z,0.00
2023-04-13T02:07:31.052Z,0.00
2023-04-13T02:08:33.491Z,0.00
2023-04-13T02:09:32.046Z,0.00
2023-04-13T02:10:31.056Z,0.00
2023-04-13T02:11:31.042Z,0.00
2023-04-13T02:12:31.066Z,0.00
2023-04-13T02:13:32.022Z,0.00
2023-04-13T02:14:32.053Z,0.00
2023-04-13T02:15:31.035Z,0.00
2023-04-13T02:16:31.089Z,0.00
2023-04-13T02:17:31.058Z,0.00
2023-04-13T02:18:32.020Z,0.00
2023-04-13T02:19:31.983Z,0.00
2023-04-13T02:20:31.027Z,0.00
2023-04-13T02:21:30.977Z,0.00
2023-04-13T02:22:30.994Z,0.00
2023-04-13T02:23:31.992Z,0.00
2023-04-13T02:24:31.979Z,0.00
2023-04-13T02:25:30.944Z,0.00
2023-04-13T02:26:31.081Z,0.00
2023-04-13T02:27:31.032Z,0.00
2023-04-13T02:28:31.970Z,0.00
2023-04-13T02:29:31.947Z,0.00
2023-04-13T02:30:31.043Z,0.00
2023-04-13T02:31:31.045Z,0.00
2023-04-13T02:32:30.937Z,0.00
2023-04-13T02:33:31.930Z,0.00
2023-04-13T02:34:31.924Z,0.00
2023-04-13T02:35:30.905Z,0.00
2023-04-13T02:36:30.988Z,0.00
2023-04-13T02:37:30.897Z,0.00
2023-04-13T02:38:31.957Z,0.00
2023-04-13T02:39:31.905Z,0.00
2023-04-13T02:40:30.909Z,0.00
2023-04-13T02:41:30.896Z,0.00
2023-04-13T02:42:30.893Z,0.00
2023-04-13T02:43:31.907Z,0.00
2023-04-13T02:44:31.883Z,0.00
2023-04-13T02:45:30.989Z,0.00
2023-04-13T02:46:32.987Z,0.00
2023-04-13T02:47:30.876Z,0.00
2023-04-13T02:48:31.870Z,0.00
2023-04-13T02:49:31.842Z,0.00
2023-04-13T02:50:30.879Z,0.00
2023-04-13T02:51:30.826Z,0.00
2023-04-13T02:52:30.857Z,0.00
2023-04-13T02:53:31.812Z,0.00
2023-04-13T02:54:31.865Z,0.00
2023-04-13T02:55:30.787Z,0.00
2023-04-13T02:56:30.837Z,0.00
2023-04-13T02:57:30.805Z,0.00
2023-04-13T02:58:31.888Z,0.00
2023-04-13T02:59:31.787Z,0.00
2023-04-13T03:00:30.836Z,0.00
2023-04-13T03:01:30.861Z,0.00
2023-04-13T03:02:30.865Z,0.00
2023-04-13T03:03:31.771Z,0.00
2023-04-13T03:04:31.829Z,0.00
2023-04-13T03:05:30.753Z,0.00
2023-04-13T03:06:30.791Z,0.00
2023-04-13T03:07:30.738Z,0.00
2023-04-13T03:08:31.777Z,0.00
2023-04-13T03:09:31.748Z,0.00
2023-04-13T03:10:30.746Z,0.00
2023-04-13T03:11:30.792Z,0.00
2023-04-13T03:12:30.716Z,0.00
2023-04-13T03:13:31.819Z,0.00
2023-04-13T03:14:31.731Z,0.00
2023-04-13T03:15:30.682Z,0.00
2023-04-13T03:16:30.727Z,0.00
2023-04-13T03:17:30.706Z,0.00
2023-04-13T03:18:31.748Z,0.00
2023-04-13T03:19:31.671Z,0.00
2023-04-13T03:20:30.728Z,0.00
2023-04-13T03:21:30.665Z,0.00
2023-04-13T03:22:30.749Z,0.00
2023-04-13T03:23:31.657Z,0.00
2023-04-13T03:24:31.669Z,0.00
2023-04-13T03:25:32.490Z,0.00
2023-04-13T03:26:30.626Z,0.00
2023-04-13T03:27:30.637Z,0.00
2023-04-13T03:28:31.639Z,0.00
2023-04-13T03:29:31.626Z,0.00
2023-04-13T03:30:30.627Z,0.00
2023-04-13T03:31:30.705Z,0.00
2023-04-13T03:32:30.636Z,0.00
2023-04-13T03:33:31.621Z,0.00
2023-04-13T03:34:31.588Z,0.00
2023-04-13T03:35:30.614Z,0.00
2023-04-13T03:36:30.630Z,0.00
2023-04-13T03:37:30.599Z,0.00
2023-04-13T03:38:31.625Z,0.00
2023-04-13T03:39:31.605Z,0.00
2023-04-13T03:40:30.873Z,0.00
2023-04-13T03:41:30.601Z,0.00
2023-04-13T03:42:30.571Z,0.00
2023-04-13T03:43:31.612Z,0.00
2023-04-13T03:44:31.780Z,0.00
2023-04-13T03:45:30.682Z,0.00
2023-04-13T03:46:30.587Z,0.00
2023-04-13T03:47:30.691Z,0.00
2023-04-13T03:48:31.687Z,0.00
2023-04-13T03:49:31.615Z,0.00
2023-04-13T03:50:30.535Z,0.00
2023-04-13T03:51:30.582Z,0.00
2023-04-13T03:52:30.651Z,0.00
2023-04-13T03:53:31.579Z,0.00
2023-04-13T03:54:31.554Z,4.00
2023-04-13T03:55:30.496Z,4.00
2023-04-13T03:56:30.530Z,0.00
2023-04-13T03:57:30.530Z,4.00
2023-04-13T03:58:31.565Z,4.00
2023-04-13T03:59:31.605Z,4.00
2023-04-13T04:00:30.531Z,8.00
2023-04-13T04:01:30.505Z,8.00
2023-04-13T04:02:30.646Z,8.00
2023-04-13T04:03:31.571Z,12.00
2023-04-13T04:04:31.600Z,12.00
2023-04-13T04:05:30.447Z,12.00
2023-04-13T04:06:30.416Z,16.00
2023-04-13T04:07:30.505Z,12.00
2023-04-13T04:08:31.474Z,16.00
2023-04-13T04:09:31.695Z,16.00
2023-04-13T04:10:30.401Z,16.00
2023-04-13T04:11:30.406Z,20.00
2023-04-13T04:12:30.425Z,24.00
2023-04-13T04:13:31.466Z,28.00
2023-04-13T04:14:31.414Z,32.00
2023-04-13T04:15:30.523Z,36.00
2023-04-13T04:16:30.499Z,40.00
2023-04-13T04:17:30.538Z,44.00
2023-04-13T04:18:31.406Z,52.00
2023-04-13T04:19:31.423Z,56.00
2023-04-13T04:20:30.404Z,64.00
2023-04-13T04:21:30.470Z,72.00
2023-04-13T04:22:30.509Z,80.00
2023-04-13T04:23:31.381Z,92.00
2023-04-13T04:24:31.445Z,96.00
2023-04-13T04:25:30.375Z,100.00
2023-04-13T04:26:30.332Z,104.00
2023-04-13T04:27:30.349Z,108.00
2023-04-13T04:28:31.332Z,116.00
2023-04-13T04:29:31.329Z,120.00
2023-04-13T04:30:30.348Z,120.00
2023-04-13T04:31:30.390Z,124.00
2023-04-13T04:32:30.344Z,120.00
2023-04-13T04:33:31.338Z,120.00
2023-04-13T04:34:31.286Z,120.00
2023-04-13T04:35:30.301Z,128.00
2023-04-13T04:36:30.306Z,132.00
2023-04-13T04:37:30.301Z,140.00
2023-04-13T04:38:31.333Z,152.00
2023-04-13T04:39:31.345Z,172.00
2023-04-13T04:40:30.262Z,192.00
2023-04-13T04:41:30.223Z,224.00
2023-04-13T04:42:30.308Z,248.00
2023-04-13T04:43:31.318Z,272.00
2023-04-13T04:44:31.282Z,288.00
2023-04-13T04:45:30.411Z,288.00
2023-04-13T04:46:30.304Z,284.00
2023-04-13T04:47:30.478Z,268.00
2023-04-13T04:48:31.267Z,248.00
2023-04-13T04:49:31.245Z,240.00
2023-04-13T04:50:30.329Z,232.00
2023-04-13T04:51:30.349Z,236.00
2023-04-13T04:52:30.184Z,240.00
2023-04-13T04:53:31.286Z,244.00
2023-04-13T04:54:31.286Z,248.00
2023-04-13T04:55:30.236Z,260.00
2023-04-13T04:56:30.270Z,272.00
2023-04-13T04:57:30.274Z,284.00
2023-04-13T04:58:31.341Z,284.00
2023-04-13T04:59:31.257Z,288.00
2023-04-13T05:00:30.182Z,300.00
2023-04-13T05:01:30.235Z,304.00
2023-04-13T05:02:30.208Z,308.00
2023-04-13T05:03:31.245Z,312.00
2023-04-13T05:04:31.093Z,312.00
2023-04-13T05:05:30.281Z,316.00
2023-04-13T05:06:30.094Z,324.00
2023-04-13T05:07:30.086Z,344.00
2023-04-13T05:08:31.100Z,356.00
2023-04-13T05:09:31.092Z,376.00
2023-04-13T05:10:30.102Z,396.00
2023-04-13T05:11:37.029Z,424.00
2023-04-13T05:12:30.029Z,460.00
2023-04-13T05:13:31.081Z,492.00
2023-04-13T05:14:31.109Z,528.00
2023-04-13T05:15:30.053Z,560.00
2023-04-13T05:16:30.076Z,580.00
2023-04-13T05:17:30.096Z,616.00
2023-04-13T05:18:31.022Z,668.00
2023-04-13T05:19:31.048Z,756.00
2023-04-13T05:20:30.072Z,872.00
2023-04-13T05:21:30.046Z,1028.00
2023-04-13T05:22:30.015Z,1192.00
2023-04-13T05:23:31.069Z,1316.00
2023-04-13T05:24:31.037Z,1416.00
2023-04-13T05:25:30.027Z,1472.00
2023-04-13T05:26:29.965Z,1492.00
2023-04-13T05:27:29.993Z,1476.00
2023-04-13T05:28:30.977Z,1452.00
2023-04-13T05:29:31.086Z,1432.00
2023-04-13T05:30:29.988Z,1412.00
2023-04-13T05:31:29.978Z,1416.00
2023-04-13T05:32:29.982Z,1468.00
2023-04-13T05:33:30.969Z,1544.00
2023-04-13T05:34:30.935Z,1604.00
2023-04-13T05:35:29.958Z,1656.00
2023-04-13T05:36:29.921Z,1712.00
2023-04-13T05:37:29.957Z,1800.00
2023-04-13T05:38:30.946Z,1924.00
2023-04-13T05:39:30.943Z,2012.00
2023-04-13T05:40:29.889Z,2068.00
2023-04-13T05:41:29.923Z,2068.00
2023-04-13T05:42:29.934Z,2012.00
2023-04-13T05:43:30.913Z,1908.00
2023-04-13T05:44:30.883Z,1792.00
2023-04-13T05:45:29.963Z,1648.00
2023-04-13T05:46:29.867Z,1500.00
2023-04-13T05:47:29.898Z,1372.00
2023-04-13T05:48:32.880Z,1284.00
2023-04-13T05:49:30.916Z,1232.00
2023-04-13T05:50:29.910Z,1208.00
2023-04-13T05:51:29.860Z,1196.00
2023-04-13T05:52:29.902Z,1184.00
2023-04-13T05:53:30.871Z,1220.00
2023-04-13T05:54:30.861Z,1292.00
2023-04-13T05:55:29.902Z,1316.00
2023-04-13T05:56:29.848Z,1360.00
2023-04-13T05:57:29.965Z,1412.00
2023-04-13T05:58:30.822Z,1472.00
2023-04-13T05:59:30.836Z,1564.00
2023-04-13T06:00:29.846Z,1700.00
2023-04-13T06:01:29.841Z,1836.00
2023-04-13T06:02:29.855Z,1940.00
2023-04-13T06:03:31.062Z,1960.00
2023-04-13T06:04:31.239Z,1972.00
2023-04-13T06:05:29.902Z,2008.00
2023-04-13T06:06:29.760Z,2048.00
2023-04-13T06:07:29.788Z,2096.00
2023-04-13T06:08:30.752Z,2160.00
2023-04-13T06:09:30.781Z,2164.00
2023-04-13T06:10:29.853Z,2160.00
2023-04-13T06:11:29.784Z,2140.00
2023-04-13T06:12:29.747Z,2132.00
2023-04-13T06:13:30.801Z,2140.00
2023-04-13T06:14:30.757Z,2172.00
2023-04-13T06:15:29.743Z,2216.00
2023-04-13T06:16:29.807Z,2252.00
2023-04-13T06:17:29.752Z,2268.00
2023-04-13T06:18:30.715Z,2256.00
2023-04-13T06:19:30.737Z,2248.00
2023-04-13T06:20:29.761Z,2236.00
2023-04-13T06:21:29.718Z,2216.00
2023-04-13T06:22:29.714Z,2204.00
2023-04-13T06:23:30.741Z,2180.00
2023-04-13T06:24:30.696Z,2124.00
2023-04-13T06:25:29.744Z,2044.00
2023-04-13T06:26:29.668Z,1976.00
2023-04-13T06:27:29.709Z,1920.00
2023-04-13T06:28:30.668Z,1892.00
2023-04-13T06:29:30.785Z,1876.00
2023-04-13T06:30:29.818Z,1880.00
2023-04-13T06:31:29.912Z,1896.00
2023-04-13T06:32:29.770Z,1920.00
2023-04-13T06:33:30.655Z,1944.00
2023-04-13T06:34:30.673Z,1964.00
2023-04-13T06:35:29.652Z,1996.00
2023-04-13T06:36:29.628Z,2040.00
2023-04-13T06:37:29.629Z,2096.00
2023-04-13T06:38:30.631Z,2164.00
2023-04-13T06:39:31.835Z,2260.00
2023-04-13T06:40:29.592Z,2372.00
2023-04-13T06:41:29.692Z,2484.00
2023-04-13T06:42:29.567Z,2564.00
2023-04-13T06:43:30.589Z,2656.00
2023-04-13T06:44:30.595Z,2800.00
2023-04-13T06:45:29.656Z,2920.00
2023-04-13T06:46:29.626Z,3064.00
2023-04-13T06:47:29.645Z,3080.00
2023-04-13T06:48:30.617Z,3152.00
2023-04-13T06:49:30.564Z,3188.00
2023-04-13T06:50:29.599Z,3280.00
2023-04-13T06:51:29.592Z,3324.00
2023-04-13T06:52:29.543Z,3540.00
2023-04-13T06:53:30.628Z,3572.00
2023-04-13T06:54:30.604Z,3672.00
2023-04-13T06:55:29.673Z,3748.00
2023-04-13T06:56:29.530Z,3832.00
2023-04-13T06:57:29.550Z,3924.00
2023-04-13T06:58:30.520Z,3812.00
2023-04-13T06:59:30.557Z,3852.00
2023-04-13T07:00:30.606Z,3708.00
2023-04-13T07:01:29.628Z,3468.00
2023-04-13T07:02:29.592Z,3360.00
2023-04-13T07:03:30.809Z,3208.00
2023-04-13T07:04:33.200Z,3108.00
2023-04-13T07:05:29.506Z,3040.00
2023-04-13T07:06:29.447Z,2960.00
2023-04-13T07:07:29.485Z,2836.00
2023-04-13T07:08:30.452Z,2772.00
2023-04-13T07:09:30.503Z,2708.00
2023-04-13T07:10:29.460Z,2616.00
2023-04-13T07:11:29.453Z,2540.00
2023-04-13T07:12:29.455Z,2444.00
2023-04-13T07:13:30.455Z,2356.00
2023-04-13T07:14:30.452Z,2320.00
2023-04-13T07:15:29.528Z,2320.00
2023-04-13T07:16:29.537Z,2324.00
2023-04-13T07:17:29.476Z,2312.00
2023-04-13T07:18:30.441Z,2292.00
2023-04-13T07:19:30.490Z,2272.00
2023-04-13T07:20:29.411Z,2272.00
2023-04-13T07:21:29.426Z,2308.00
2023-04-13T07:22:29.384Z,2364.00
2023-04-13T07:23:30.450Z,2440.00
2023-04-13T07:24:30.396Z,2516.00
2023-04-13T07:25:29.385Z,2588.00
2023-04-13T07:26:29.378Z,2620.00
2023-04-13T07:27:29.365Z,2620.00
2023-04-13T07:28:30.346Z,2584.00
2023-04-13T07:29:30.427Z,2552.00
2023-04-13T07:30:29.351Z,2508.00
2023-04-13T07:31:29.464Z,2488.00
2023-04-13T07:32:31.374Z,2508.00
2023-04-13T07:33:30.346Z,2592.00
2023-04-13T07:34:30.326Z,2724.00
2023-04-13T07:35:29.376Z,2900.00
2023-04-13T07:36:29.297Z,3164.00
2023-04-13T07:37:29.320Z,3452.00
2023-04-13T07:38:30.302Z,3880.00
2023-04-13T07:39:30.376Z,4288.00
2023-04-13T07:40:29.336Z,4476.00
2023-04-13T07:41:29.322Z,5104.00
2023-04-13T07:42:29.344Z,6008.00
2023-04-13T07:43:30.342Z,5848.00
2023-04-13T07:44:30.322Z,6068.00
2023-04-13T07:45:29.328Z,5844.00
2023-04-13T07:46:29.325Z,5672.00
2023-04-13T07:47:29.362Z,5268.00
2023-04-13T07:48:30.323Z,5220.00
2023-04-13T07:49:30.345Z,4984.00
2023-04-13T07:50:29.241Z,4696.00
2023-04-13T07:51:29.217Z,4124.00
2023-04-13T07:52:29.310Z,3764.00
2023-04-13T07:53:30.276Z,3632.00
2023-04-13T07:54:30.322Z,3856.00
2023-04-13T07:55:29.214Z,4624.00
2023-04-13T07:56:29.218Z,5268.00
2023-04-13T07:57:29.206Z,5492.00
2023-04-13T07:58:30.220Z,5188.00
2023-04-13T07:59:30.210Z,5096.00
2023-04-13T08:00:29.252Z,5428.00
2023-04-13T08:01:29.209Z,5920.00
2023-04-13T08:02:29.303Z,6192.00
2023-04-13T08:03:30.344Z,6688.00
2023-04-13T08:04:30.415Z,7364.00
2023-04-13T08:05:29.309Z,7372.00
2023-04-13T08:06:29.288Z,9040.00
2023-04-13T08:07:29.212Z,12480.00
2023-04-13T08:08:30.187Z,11048.00
2023-04-13T08:09:30.178Z,11344.00
2023-04-13T08:10:29.199Z,10296.00
2023-04-13T08:11:29.136Z,8860.00
2023-04-13T08:12:29.159Z,8192.00
2023-04-13T08:13:30.160Z,8048.00
2023-04-13T08:14:30.289Z,7480.00
2023-04-13T08:15:29.957Z,7860.00
2023-04-13T08:16:30.027Z,8640.00
2023-04-13T08:17:29.156Z,9308.00
2023-04-13T08:18:30.189Z,9860.00
2023-04-13T08:19:30.164Z,11220.00
2023-04-13T08:20:29.136Z,12856.00
2023-04-13T08:21:29.129Z,13408.00
2023-04-13T08:22:30.284Z,12692.00
2023-04-13T08:23:30.226Z,12448.00
2023-04-13T08:24:30.169Z,11920.00
2023-04-13T08:25:29.097Z,11316.00
2023-04-13T08:26:29.125Z,10724.00
2023-04-13T08:27:29.118Z,10524.00
2023-04-13T08:28:32.004Z,10436.00
2023-04-13T08:29:30.094Z,10308.00
2023-04-13T08:30:29.104Z,9628.00
2023-04-13T08:31:29.150Z,8600.00
2023-04-13T08:32:29.210Z,7620.00
2023-04-13T08:33:30.088Z,6832.00
2023-04-13T08:34:30.148Z,6300.00
2023-04-13T08:35:29.109Z,5980.00
2023-04-13T08:36:31.348Z,5864.00
2023-04-13T08:37:29.882Z,5760.00
2023-04-13T08:38:30.914Z,5764.00
2023-04-13T08:39:30.098Z,5812.00
2023-04-13T08:40:29.084Z,6040.00
2023-04-13T08:41:30.348Z,6256.00
2023-04-13T08:42:30.884Z,6596.00
2023-04-13T08:43:30.923Z,6688.00
2023-04-13T08:44:30.104Z,6812.00
2023-04-13T08:45:29.054Z,6732.00
2023-04-13T08:46:29.106Z,6604.00
2023-04-13T08:47:29.170Z,6364.00
2023-04-13T08:48:38.943Z,6096.00
2023-04-13T08:49:31.349Z,5792.00
2023-04-13T08:50:29.038Z,5496.00
2023-04-13T08:51:29.011Z,5220.00
2023-04-13T08:52:29.108Z,4956.00
2023-04-13T08:53:30.070Z,4748.00
2023-04-13T08:54:30.052Z,4596.00
2023-04-13T08:55:29.080Z,4468.00
2023-04-13T08:56:42.098Z,4404.00
2023-04-13T08:57:28.996Z,4404.00
2023-04-13T08:58:30.063Z,4456.00
2023-04-13T08:59:29.996Z,4564.00
2023-04-13T09:00:29.157Z,4756.00
2023-04-13T09:01:29.048Z,5072.00
2023-04-13T09:02:29.222Z,5616.00
2023-04-13T09:03:30.086Z,6260.00
2023-04-13T09:04:30.313Z,6748.00
2023-04-13T09:05:29.141Z,7124.00
2023-04-13T09:06:28.979Z,7276.00
2023-04-13T09:07:29.001Z,7420.00
2023-04-13T09:08:30.031Z,7644.00
2023-04-13T09:09:30.028Z,7976.00
2023-04-13T09:10:28.977Z,8192.00
2023-04-13T09:11:29.017Z,8488.00
2023-04-13T09:12:29.004Z,8740.00
2023-04-13T09:13:29.930Z,8944.00
2023-04-13T09:14:29.954Z,9208.00
2023-04-13T09:15:28.954Z,9292.00
2023-04-13T09:16:28.966Z,9328.00
2023-04-13T09:17:29.076Z,9232.00
2023-04-13T09:18:29.961Z,8940.00
2023-04-13T09:19:29.914Z,8700.00
2023-04-13T09:20:28.963Z,8524.00
2023-04-13T09:21:28.996Z,8172.00
2023-04-13T09:22:28.959Z,7812.00
2023-04-13T09:23:29.924Z,7496.00
2023-04-13T09:24:29.958Z,7304.00
2023-04-13T09:25:28.992Z,7052.00
2023-04-13T09:26:28.925Z,6740.00
2023-04-13T09:27:28.911Z,6560.00
2023-04-13T09:28:29.952Z,6528.00
2023-04-13T09:29:29.888Z,6188.00
2023-04-13T09:30:28.948Z,5984.00
2023-04-13T09:31:28.924Z,5768.00
2023-04-13T09:32:28.967Z,5292.00
2023-04-13T09:33:29.893Z,5404.00
2023-04-13T09:34:29.964Z,5580.00
2023-04-13T09:35:28.856Z,5716.00
2023-04-13T09:36:28.911Z,6044.00
2023-04-13T09:37:28.849Z,7176.00
2023-04-13T09:38:29.884Z,7944.00
2023-04-13T09:39:29.890Z,8280.00
2023-04-13T09:40:28.923Z,8300.00
2023-04-13T09:41:28.904Z,9060.00
2023-04-13T09:42:28.841Z,9808.00
2023-04-13T09:43:29.980Z,10260.00
2023-04-13T09:44:29.944Z,10452.00
2023-04-13T09:45:29.001Z,10020.00
2023-04-13T09:46:28.980Z,10768.00
2023-04-13T09:47:28.845Z,10704.00
2023-04-13T09:48:29.836Z,9500.00
2023-04-13T09:49:29.884Z,8864.00
2023-04-13T09:50:28.923Z,8900.00
2023-04-13T09:51:28.826Z,9876.00
2023-04-13T09:52:28.834Z,8992.00
2023-04-13T09:53:29.840Z,9268.00
2023-04-13T09:54:29.886Z,9436.00
2023-04-13T09:55:28.814Z,9480.00
2023-04-13T09:56:28.857Z,9416.00
2023-04-13T09:57:28.906Z,9116.00
2023-04-13T09:58:29.868Z,9008.00
2023-04-13T09:59:29.895Z,8068.00
2023-04-13T10:00:29.011Z,9164.00
2023-04-13T10:01:28.884Z,8440.00
2023-04-13T10:02:29.045Z,8536.00
2023-04-13T10:03:29.931Z,8296.00
2023-04-13T10:04:29.837Z,9180.00
2023-04-13T10:05:29.193Z,9672.00
2023-04-13T10:06:29.010Z,8736.00
2023-04-13T10:07:28.819Z,8552.00
2023-04-13T10:08:37.462Z,9676.00
2023-04-13T10:09:29.755Z,8784.00
2023-04-13T10:10:28.774Z,8888.00
2023-04-13T10:11:28.798Z,8676.00
2023-04-13T10:12:28.778Z,7992.00
2023-04-13T10:13:29.746Z,7636.00
2023-04-13T10:14:29.870Z,7176.00
2023-04-13T10:15:28.814Z,6544.00
2023-04-13T10:16:28.924Z,6376.00
2023-04-13T10:17:29.014Z,6656.00
2023-04-13T10:18:29.978Z,6888.00
2023-04-13T10:19:30.953Z,6788.00
2023-04-13T10:20:28.830Z,6892.00
2023-04-13T10:21:28.780Z,6132.00
2023-04-13T10:22:28.769Z,5788.00
2023-04-13T10:23:29.807Z,5728.00
2023-04-13T10:24:29.787Z,5744.00
2023-04-13T10:25:33.520Z,5720.00
2023-04-13T10:26:28.746Z,5720.00
2023-04-13T10:27:28.713Z,5836.00
2023-04-13T10:28:29.803Z,5676.00
2023-04-13T10:29:29.702Z,5840.00
2023-04-13T10:30:28.833Z,5904.00
2023-04-13T10:31:28.854Z,5832.00
2023-04-13T10:32:28.832Z,5812.00
2023-04-13T10:33:29.745Z,5984.00
2023-04-13T10:34:29.852Z,6420.00
2023-04-13T10:35:28.697Z,6696.00
2023-04-13T10:36:28.702Z,6928.00
2023-04-13T10:37:28.820Z,7232.00
2023-04-13T10:38:29.762Z,7276.00
2023-04-13T10:39:29.768Z,6952.00
2023-04-13T10:40:28.821Z,6320.00
2023-04-13T10:41:28.658Z,6352.00
2023-04-13T10:42:28.861Z,6824.00
2023-04-13T10:43:29.783Z,7052.00
2023-04-13T10:44:29.752Z,7292.00
2023-04-13T10:45:28.680Z,7108.00
2023-04-13T10:46:28.673Z,6984.00
2023-04-13T10:47:28.718Z,7104.00
2023-04-13T10:48:29.663Z,7180.00
2023-04-13T10:49:29.711Z,7012.00
2023-04-13T10:50:28.667Z,6460.00
2023-04-13T10:51:28.682Z,6128.00
2023-04-13T10:52:28.653Z,6152.00
2023-04-13T10:53:29.653Z,6444.00
2023-04-13T10:54:29.660Z,6504.00
2023-04-13T10:55:28.619Z,7228.00
2023-04-13T10:56:28.648Z,7548.00
2023-04-13T10:57:28.780Z,8076.00
2023-04-13T10:58:32.499Z,7468.00
2023-04-13T10:59:29.623Z,7144.00
2023-04-13T11:00:42.341Z,6720.00
2023-04-13T11:01:28.603Z,6528.00
2023-04-13T11:02:28.728Z,6412.00
2023-04-13T11:03:29.673Z,6392.00
2023-04-13T11:04:29.796Z,6704.00
2023-04-13T11:05:28.615Z,6724.00
2023-04-13T11:06:28.647Z,7196.00
2023-04-13T11:07:28.633Z,6936.00
2023-04-13T11:08:29.656Z,6584.00
2023-04-13T11:09:29.634Z,5912.00
2023-04-13T11:10:28.674Z,5360.00
2023-04-13T11:11:28.574Z,4892.00
2023-04-13T11:12:28.632Z,4228.00
2023-04-13T11:13:30.032Z,3956.00
2023-04-13T11:14:29.647Z,3992.00
2023-04-13T11:15:28.571Z,4096.00
2023-04-13T11:16:28.601Z,4472.00
2023-04-13T11:17:28.698Z,5132.00
2023-04-13T11:18:29.589Z,6016.00
2023-04-13T11:19:29.631Z,7064.00
2023-04-13T11:20:28.600Z,7688.00
2023-04-13T11:21:28.650Z,7604.00
2023-04-13T11:22:28.642Z,7108.00
2023-04-13T11:23:29.614Z,6576.00
2023-04-13T11:24:29.573Z,6744.00
2023-04-13T11:25:28.562Z,6416.00
2023-04-13T11:26:28.698Z,6416.00
2023-04-13T11:27:28.527Z,6228.00
2023-04-13T11:28:29.610Z,5784.00
2023-04-13T11:29:29.548Z,5176.00
2023-04-13T11:30:28.580Z,4600.00
2023-04-13T11:31:28.582Z,4180.00
2023-04-13T11:32:28.596Z,3812.00
2023-04-13T11:33:29.597Z,3548.00
2023-04-13T11:34:29.552Z,3428.00
2023-04-13T11:35:28.502Z,3516.00
2023-04-13T11:36:28.563Z,3840.00
2023-04-13T11:37:28.563Z,4180.00
2023-04-13T11:38:29.592Z,4692.00
2023-04-13T11:39:29.570Z,5224.00
2023-04-13T11:40:28.546Z,5436.00
2023-04-13T11:41:28.511Z,5612.00
2023-04-13T11:42:28.573Z,5720.00
2023-04-13T11:43:29.517Z,5884.00
2023-04-13T11:44:29.521Z,6044.00
2023-04-13T11:45:28.493Z,5628.00
2023-04-13T11:46:28.556Z,5100.00
2023-04-13T11:47:28.582Z,4756.00
2023-04-13T11:48:29.528Z,4924.00
2023-04-13T11:49:29.499Z,5072.00
2023-04-13T11:50:28.503Z,5136.00
2023-04-13T11:51:28.532Z,5308.00
2023-04-13T11:52:28.506Z,5472.00
2023-04-13T11:53:29.504Z,5884.00
2023-04-13T11:54:29.475Z,6128.00
2023-04-13T11:55:29.176Z,6288.00
2023-04-13T11:56:28.477Z,6300.00
2023-04-13T11:57:28.461Z,5756.00
2023-04-13T11:58:29.461Z,5636.00
2023-04-13T11:59:29.431Z,5884.00
2023-04-13T12:00:28.426Z,6004.00
2023-04-13T12:01:33.751Z,5960.00
2023-04-13T12:03:42.176Z,8176.00
2023-04-13T12:04:29.639Z,7060.00
2023-04-13T12:05:28.597Z,6992.00
2023-04-13T12:06:29.077Z,7072.00
2023-04-13T12:07:28.915Z,6860.00
2023-04-13T12:08:29.574Z,6908.00
2023-04-13T12:09:54.516Z,6724.00
2023-04-13T12:10:38.228Z,6260.00
2023-04-13T12:12:51.519Z,6504.00
2023-04-13T12:16:55.580Z,6540.00
2023-04-13T12:17:39.124Z,6700.00
2023-04-13T12:18:36.672Z,6828.00
2023-04-13T12:19:30.491Z,7436.00
2023-04-13T12:20:28.480Z,7292.00
2023-04-13T12:21:29.069Z,7112.00
2023-04-13T12:22:29.626Z,6056.00
2023-04-13T12:23:29.506Z,6688.00
2023-04-13T12:24:30.322Z,7380.00
2023-04-13T12:25:35.587Z,6392.00
2023-04-13T12:27:09.981Z,6308.00
2023-04-13T12:27:28.379Z,6292.00
2023-04-13T12:28:30.368Z,6124.00
2023-04-13T12:29:29.396Z,5944.00
2023-04-13T12:30:28.378Z,5400.00
2023-04-13T12:31:28.504Z,5064.00
2023-04-13T12:32:28.342Z,5104.00
2023-04-13T12:33:29.396Z,5148.00
2023-04-13T12:34:29.340Z,5184.00
2023-04-13T12:35:28.358Z,5232.00